Tiempo atmosférico en la estación meteorológica de La Victoria de Acentejo, Santa Cruz de Tenerife (567 m.)



Fecha
DESCASC
Temp. máxima en grados centígrados (hora)
DESCASC
Temp. mínima en grados centígrados (hora)
DESCASC
Temp. media en grados centígrados
DESCASC
Racha de viento máxima en m/sg (hora)
DESCASC
Velocidad máxima media en intervalos de 10 minutos(hora)
DESCASC
Precipitaciones diarias en mm
DESCASC
Precipitaciones de 00:00 a 06:00 en mm
DESCASC
Precipitaciones de 06:00 a 12:00 en mm
DESCASC
Precipitaciones de 12:00 a 18:00 en mm
DESCASC
Precipitaciones de 18:00 a 24:00 en mm
DESCASC
18-11-2019 18.8 (12:20) 12.3 (20:20) 15.5 6.39 (13:50) 4.44 (20:30) 0 0 0 0 0
17-11-2019 17.7 (15:50) 12 (04:30) 14.9 7.5 (12:00) 3.89 (14:40) 1.4 1 0.2 0 0.2
16-11-2019 17.2 (16:30) 12.4 (02:40) 14.8 6.67 (06:20) 3.33 (15:00) 7.2 5 0.8 0.8 0.6
15-11-2019 15.3 (12:00) 12.7 (23:50) 14 9.17 (11:20) 5 (13:30) 6.8 0.4 3.4 2 1
14-11-2019 18.7 (14:20) 14.2 (00:00) 16.5 8.33 (12:50) 5.28 (13:00) 2.2 0 1.4 0 0.8
13-11-2019 18.1 (11:40) 12 (00:00) 15.1 6.11 (14:40) 3.33 (14:40) 0 0 0 0 0
12-11-2019 18.8 (12:10) 12.1 (00:00) 15.4 6.94 (20:30) 3.89 (20:30) 9.8 0.2 4.6 5 0
11-11-2019 19 (11:20) 14.1 (06:50) 16.6 7.5 (04:20) 4.17 (04:10) 2 0 0.2 0.8 1
10-11-2019 20.8 (16:40) 13.4 (00:00) 17.1 9.72 (12:40) 5 (15:00) 1.8 1.8 0 0 0
09-11-2019 18.3 (11:20) 13.9 (00:00) 16.1 7.5 (11:00) 3.89 (12:20) 4.4 0.4 0.6 1.8 1.6
08-11-2019 21.6 (11:30) 14.4 (02:10) 18 8.61 (14:40) 5 (14:40) 0.2 0.2 0 0 0
07-11-2019 19.3 (13:10) 13.8 (00:00) 16.5 7.22 (14:40) 4.17 (13:20) 5.2 0.6 2.8 0.2 1.6
06-11-2019 18 (14:20) 13.7 (00:00) 15.8 7.5 (09:40) 3.89 (09:40) 11.8 1 3.8 0.4 6.6
05-11-2019 21.8 (13:30) 13.7 (00:00) 17.7 7.5 (01:20) 3.89 (13:20) 17.8 0 0 0 17.8
04-11-2019 22.1 (14:30) 12.8 (00:00) 17.5 7.22 (11:10) 3.61 (01:20) 0 0 0 0 0
03-11-2019 24.7 (09:40) 14.5 (00:00) 19.6 5.56 (14:20) 4.17 (05:40) 0 0 0 0 0
02-11-2019 25.7 (09:20) 15.1 (00:00) 20.4 8.33 (09:20) 3.33 (09:10) 0 0 0 0 0
01-11-2019 24.2 (14:40) 15.3 (00:00) 19.8 5.56 (01:40) 3.61 (11:40) 0 0 0 0 0
31-10-2019 24.7 (09:50) 15.7 (22:00) 20.2 5.56 (15:10) 3.33 (14:20) 0 0 0 0 0
30-10-2019 28.7 (15:40) 19.5 (00:00) 24.1 5.56 (21:20) 4.72 (21:20) 0 0 0 0 0
29-10-2019 30.4 (14:20) 18.9 (00:00) 24.6 5 (03:10) 3.33 (06:50) 0 0 0 0 0
28-10-2019 27.3 (14:10) 18.6 (00:00) 22.9 4.72 (02:10) 3.61 (02:10) 0 0 0 0 0
27-10-2019 25.9 (16:30) 18.3 (00:00) 22.1 7.22 (06:20) 5.83 (06:20) 0 0 0 0 0
26-10-2019 23.6 (04:20) 16.9 (00:00) 20.3 9.44 (05:30) 6.11 (14:20) 34.2 0.2 15.4 18.6 0
25-10-2019 21.3 (17:10) 12 (00:00) 16.6 5.83 (23:10) 3.61 (02:10) 0 0 0 0 0
24-10-2019 20.9 (15:30) 11.1 (00:00) 16 5.83 (03:10) 4.44 (08:20) 0 0 0 0 0
23-10-2019 18.8 (18:30) 12.6 (00:00) 15.7 7.78 (22:20) 5 (22:20) 5.2 4.8 0.4 0 0
22-10-2019 19.7 (15:50) 13 (02:30) 16.4 6.94 (12:00) 3.61 (12:10) 1.4 0.4 0.4 0 0.6

Gráficas

Temp. máximas Temp. mínimas Temp. medias Precipitaciones Rachas de viento máximas Velocidades máximas media en intervalos de 10 minutos

Datos horarios

Fecha y hora oficial Temperatura (ºC) Velocidad del viento (km/h) Dirección del viento Racha (km/h) Dirección de racha Precipitación (mm) Presión (hPa) Tendencia (hPa) Humedad (%)
2019-11-20 23:00:00 14.4 10 Sur 14 Sur 0 -- -- 94
2019-11-20 22:00:00 14.1 10 Sur 14 Sur 0.6 -- -- 98
2019-11-20 21:00:00 14.7 3 Sudoeste 6 Sudoeste 1.6 -- -- 99
2019-11-20 20:00:00 14.9 5 Sudoeste 10 Sudoeste 0.2 -- -- 98
2019-11-20 19:00:00 15.2 4 Sudoeste 13 Norte 0.6 -- -- 98
2019-11-20 18:00:00 15.3 8 Norte 19 Noroeste 0 -- -- 98
2019-11-20 17:00:00 16.3 10 Noroeste 22 Noroeste 0.2 -- -- 95
2019-11-20 16:00:00 16.9 9 Noroeste 15 Noroeste 0 -- -- 85
2019-11-20 15:00:00 19.1 9 Noroeste 22 Noroeste 0 -- -- 74
2019-11-20 14:00:00 18.5 9 Noroeste 15 Noroeste 0 -- -- 74
2019-11-20 13:00:00 19.9 8 Noroeste 15 Noroeste 0 -- -- 65
2019-11-20 12:00:00 20 4 Oeste 13 Noroeste 0 -- -- 62
2019-11-20 11:00:00 19.7 8 Noroeste 12 Noroeste 0 -- -- 65
2019-11-20 10:00:00 19.4 3 Oeste 14 Sur 0 -- -- 60
2019-11-20 09:00:00 14.5 10 Sur 16 Sur 0 -- -- 73
2019-11-20 08:00:00 13.4 11 Sur 16 Sur 0 -- -- 78
2019-11-20 07:00:00 12.5 10 Sur 14 Sur 0 -- -- 84
2019-11-20 06:00:00 12.9 9 Sur 13 Sur 0 -- -- 82
2019-11-20 05:00:00 12.6 10 Sur 17 Sur 0 -- -- 81
2019-11-20 04:00:00 12.4 11 Sur 16 Sudeste 0 -- -- 79
2019-11-20 03:00:00 12.5 12 Sur 15 Sur 0 -- -- 82
2019-11-20 02:00:00 12.2 10 Sur 14 Sur 0 -- -- 75
2019-11-20 01:00:00 12.5 11 Sur 16 Sur 0 -- -- 73
2019-11-20 00:00:00 12.8 10 Sur 17 Sur 0 -- -- 64
2019-11-19 23:00:00 12.8 12 Sur 17 Sur 0 -- -- 70
2019-11-19 22:00:00 12.5 10 Sudeste 17 Sur 0 -- -- 72
2019-11-19 21:00:00 12.1 10 Sur 15 Sur 0 -- -- 80
2019-11-19 20:00:00 12.5 8 Sur 15 Sur 0 -- -- 83
2019-11-19 19:00:00 14.1 6 Sur 8 Sur 0 -- -- 89
2019-11-19 18:00:00 15.2 2 Noroeste 9 Noroeste 0 -- -- 86
2019-11-19 17:00:00 15.6 2 Norte 9 Noroeste 0 -- -- 85
2019-11-19 16:00:00 16 5 Noroeste 12 Noroeste 0 -- -- 85
2019-11-19 15:00:00 16.6 4 Noroeste 12 Noroeste 0 -- -- 78
2019-11-19 14:00:00 17 6 Noroeste 11 Noroeste 0 -- -- 74
2019-11-19 13:00:00 16 6 Noroeste 12 Noroeste 0 -- -- 83
2019-11-19 12:00:00 17.8 5 Noroeste 10 Noroeste 0 -- -- 71
2019-11-19 11:00:00 16 4 Noroeste 9 Oeste 0 -- -- 78
2019-11-19 10:00:00 16.7 3 Noroeste 6 Norte 0 -- -- 73
2019-11-19 09:00:00 17.2 0 Calma 13 Sudeste 0 -- -- 70
2019-11-19 08:00:00 11.8 10 Sudeste 14 Sudeste 0 -- -- 89
2019-11-19 07:00:00 12.9 7 Sudeste 12 Sudeste 0 -- -- 87
2019-11-19 06:00:00 12.8 6 Sudeste 12 Sudeste 0 -- -- 88
2019-11-19 05:00:00 13.3 8 Sudeste 12 Sudeste 0 -- -- 88
2019-11-19 04:00:00 13.6 9 Sudeste 13 Sur 0 -- -- 82
2019-11-19 03:00:00 13.4 5 Sur 14 Sur 0 -- -- 85
2019-11-19 02:00:00 13.6 13 Sur 18 Sur 0 -- -- 76
2019-11-19 01:00:00 13.6 9 Sur 15 Sur 0 -- -- 81
2019-11-19 00:00:00 13.9 4 Sur 9 Sudeste 0 -- -- 88
2019-11-18 23:00:00 13.7 4 Sudeste 12 Sudeste 0 -- -- 84
2019-11-18 22:00:00 14.2 9 Sudeste 17 Sudeste 0 -- -- 76
2019-11-18 21:00:00 12.7 11 Sudeste 19 Sudeste 0 -- -- 74
2019-11-18 20:00:00 12.9 10 Sudeste 14 Sudeste 0 -- -- 80
2019-11-18 19:00:00 14.3 5 Este 16 Este 0 -- -- 88
2019-11-18 18:00:00 15.6 3 Norte 12 Nordeste 0 -- -- 83
2019-11-18 17:00:00 16.4 8 Nordeste 18 Nordeste 0 -- -- 76
2019-11-18 16:00:00 17.2 9 Nordeste 21 Norte 0 -- -- 75
2019-11-18 15:00:00 17 10 Nordeste 22 Nordeste 0 -- -- 84
2019-11-18 14:00:00 16.8 15 Norte 23 Norte 0 -- -- 82
2019-11-18 13:00:00 17.2 8 Norte 18 Norte 0 -- -- 76
2019-11-18 12:00:00 18.3 12 Nordeste 20 Nordeste 0 -- -- 62
2019-11-18 11:00:00 17.2 6 Este 14 Este 0 -- -- 64
2019-11-18 10:00:00 16.5 3 Este 12 Este 0 -- -- 67
2019-11-18 09:00:00 13.4 8 Sudeste 14 Sudeste 0 -- -- 80
2019-11-18 08:00:00 13.5 10 Sudeste 17 Este 0 -- -- 80
2019-11-18 07:00:00 13.2 0 Calma 13 Sudeste 0 -- -- 81
2019-11-18 06:00:00 12.9 10 Sudeste 15 Sudeste 0 -- -- 78
2019-11-18 05:00:00 14 9 Sudeste 18 Sudeste 0 -- -- 78
2019-11-18 04:00:00 13.8 6 Sudeste 13 Sudeste 0 -- -- 80
2019-11-18 03:00:00 13.9 8 Sudeste 21 Sur 0 -- -- 75
2019-11-18 02:00:00 13.8 11 Sudeste 20 Sudeste 0 -- -- 76
2019-11-18 01:00:00 13.8 11 Sudeste 17 Sudeste 0 -- -- 75
2019-11-18 00:00:00 13.7 9 Sudeste 18 Sudeste 0 -- -- 75
2019-11-17 23:00:00 13.4 8 Sudeste 14 Sur 0 -- -- 79
2019-11-17 22:00:00 13.3 9 Sudeste 19 Sudeste 0 -- -- 80
2019-11-17 21:00:00 13.1 7 Sur 19 Este 0 -- -- 84
2019-11-17 20:00:00 13.3 5 Este 13 Sudeste 0.2 -- -- 91
2019-11-17 19:00:00 13.1 6 Sur 17 Norte 0 -- -- 89
2019-11-17 18:00:00 14.9 3 Nordeste 10 Este 0 -- -- 78
2019-11-17 17:00:00 15.5 5 Nordeste 20 Este 0 -- -- 73
2019-11-17 16:00:00 16.7 10 Este 24 Este 0 -- -- 70
2019-11-17 15:00:00 14.6 12 Este 24 Nordeste 0 -- -- 82
2019-11-17 14:00:00 15 11 Nordeste 23 Nordeste 0 -- -- 82
2019-11-17 13:00:00 16.8 3 Nordeste 22 Este 0 -- -- 63
2019-11-17 12:00:00 16.6 14 Nordeste 27 Este 0 -- -- 65
2019-11-17 11:00:00 16.5 7 Nordeste 21 Este 0 -- -- 78
2019-11-17 10:00:00 14.9 5 Nordeste 11 Nordeste 0 -- -- 82
2019-11-17 09:00:00 14.1 3 Sudeste 19 Este 0 -- -- 82
2019-11-17 08:00:00 13 10 Sudeste 20 Este 0.2 -- -- 86
2019-11-17 07:00:00 12.7 11 Sudeste 18 Sudeste 0 -- -- 86
2019-11-17 06:00:00 12.9 12 Sudeste 19 Sudeste 0 -- -- 86
2019-11-17 05:00:00 12.8 10 Sudeste 16 Sudeste 0 -- -- 86
2019-11-17 04:00:00 12.2 5 Sudeste 12 Sudeste 0 -- -- 92
2019-11-17 03:00:00 12.9 11 Sudeste 18 Este 0 -- -- 84
2019-11-17 02:00:00 12.9 6 Sudeste 11 Sudeste 0 -- -- 89
2019-11-17 01:00:00 13 4 Sur 14 Este 1 -- -- 92
2019-11-17 00:00:00 13.5 8 Sudeste 18 Este 0 -- -- 87
2019-11-16 23:00:00 13.1 10 Sudeste 19 Este 0 -- -- 86
2019-11-16 22:00:00 13.3 7 Sur 21 Sudeste 0 -- -- 87
2019-11-16 21:00:00 12.4 10 Sudeste 14 Sudeste 0 -- -- 89
2019-11-16 20:00:00 13.6 6 Este 14 Sur 0.4 -- -- 92
2019-11-16 19:00:00 13.7 6 Sudeste 13 Sur 0.2 -- -- 88
2019-11-16 18:00:00 14.1 3 Nordeste 18 Nordeste 0 -- -- 86
2019-11-16 17:00:00 15.2 7 Norte 14 Nordeste 0 -- -- 80
2019-11-16 16:00:00 16.2 6 Nordeste 22 Este 0 -- -- 77
2019-11-16 15:00:00 13.4 12 Este 23 Nordeste 0.6 -- -- 91
2019-11-16 14:00:00 15 9 Norte 19 Noroeste 0.2 -- -- 92
2019-11-16 13:00:00 15.8 7 Norte 17 Norte 0 -- -- 74
2019-11-16 12:00:00 16.2 4 Nordeste 19 Norte 0 -- -- 71
2019-11-16 11:00:00 15.1 5 Norte 15 Nordeste 0 -- -- 75
2019-11-16 10:00:00 14.8 0 Calma 10 Nordeste 0 -- -- 72
2019-11-16 09:00:00 13 5 Sudeste 17 Nordeste 0.2 -- -- 89
2019-11-16 08:00:00 13 2 Sur 12 Nordeste 0 -- -- 84
2019-11-16 07:00:00 12.7 5 Nordeste 24 Sudeste 0.6 -- -- 93
2019-11-16 06:00:00 12.5 6 Sudoeste 10 Sudoeste 1 -- -- 95
2019-11-16 05:00:00 13 4 Nordeste 12 Nordeste 0 -- -- 94
2019-11-16 04:00:00 12.6 4 Sudeste 13 Nordeste 1.4 -- -- 93
2019-11-16 03:00:00 12.6 4 Sudeste 12 Nordeste 1.4 -- -- 93
2019-11-16 02:00:00 12.5 4 Sur 15 Noroeste 0.4 -- -- 94
2019-11-16 01:00:00 12.9 4 Este 13 Nordeste 0.8 -- -- 92
2019-11-16 00:00:00 12.8 5 Este 18 Este 0 -- -- 89
2019-11-15 23:00:00 13.2 6 Este 19 Norte 0.4 -- -- 91
2019-11-15 22:00:00 13.1 4 Sudeste 10 Este 0.2 -- -- 90
2019-11-15 21:00:00 13.1 4 Sudeste 14 Nordeste 0 -- -- 88
2019-11-15 20:00:00 13 12 Este 25 Nordeste 0.2 -- -- 88
2019-11-15 19:00:00 13.7 5 Nordeste 17 Nordeste 0.2 -- -- 85
2019-11-15 18:00:00 14.3 5 Nordeste 21 Nordeste 0 -- -- 79
2019-11-15 17:00:00 14.6 9 Nordeste 24 Norte 0 -- -- 80
2019-11-15 16:00:00 14.6 12 Norte 25 Nordeste 0.2 -- -- 78
2019-11-15 15:00:00 14.3 7 Nordeste 24 Norte 0 -- -- 90
2019-11-15 14:00:00 14.6 10 Nordeste 28 Nordeste 0 -- -- 90
2019-11-15 13:00:00 14.1 13 Nordeste 25 Norte 1.8 -- -- 95
2019-11-15 12:00:00 15.3 7 Nordeste 33 Nordeste 0.4 -- -- 86
2019-11-15 11:00:00 14.8 9 Norte 27 Nordeste 1.2 -- -- 93
2019-11-15 10:00:00 14.7 6 Norte 16 Nordeste 1 -- -- 93
2019-11-15 09:00:00 14.4 6 Nordeste 17 Nordeste 0.6 -- -- 95
2019-11-15 08:00:00 14.1 5 Nordeste 22 Nordeste 0 -- -- 96
2019-11-15 07:00:00 14.5 9 Norte 16 Nordeste 0.2 -- -- 95
2019-11-15 06:00:00 14.2 8 Nordeste 17 Nordeste 0.4 -- -- 94
2019-11-15 05:00:00 14.3 4 Sudeste 7 Este 0 -- -- 89
2019-11-15 04:00:00 14.6 6 Sudoeste 12 Sur 0 -- -- 82
2019-11-15 03:00:00 14.4 7 Sudeste 16 Sudeste 0 -- -- 80
2019-11-15 02:00:00 14.3 8 Nordeste 20 Nordeste 0 -- -- 88
2019-11-15 01:00:00 14.7 7 Este 18 Este 0 -- -- 89
2019-11-15 00:00:00 14.5 5 Este 13 Este 0.4 -- -- 91
2019-11-14 23:00:00 14.9 4 Nordeste 22 Sudeste 0.2 -- -- 83
2019-11-14 22:00:00 15 4 Este 27 Este 0 -- -- 79
2019-11-14 21:00:00 14.9 11 Sudeste 18 Sudeste 0 -- -- 81
2019-11-14 20:00:00 15 6 Este 27 Nordeste 0.2 -- -- 84
2019-11-14 19:00:00 15.6 5 Este 16 Este 0 -- -- 88
2019-11-14 18:00:00 16.2 9 Sudeste 24 Este 0 -- -- 79
2019-11-14 17:00:00 16.5 11 Nordeste 21 Nordeste 0 -- -- 76
2019-11-14 16:00:00 16.9 7 Nordeste 18 Norte 0 -- -- 82
2019-11-14 15:00:00 17.7 6 Norte 18 Norte 0 -- -- 76
2019-11-14 14:00:00 18.1 7 Nordeste 24 Este 0 -- -- 73
2019-11-14 13:00:00 16.1 19 Este 30 Este 0 -- -- 83
2019-11-14 12:00:00 17.9 8 Nordeste 22 Este 0 -- -- 73
2019-11-14 11:00:00 17.2 10 Nordeste 18 Nordeste 0 -- -- 83
2019-11-14 10:00:00 15.8 6 Nordeste 14 Nordeste 0 -- -- 93
2019-11-14 09:00:00 15.5 6 Nordeste 14 Este 1.2 -- -- 95
2019-11-14 08:00:00 15.4 7 Este 18 Sudeste 0.2 -- -- 84
2019-11-14 07:00:00 14.6 12 Sudeste 20 Sudeste 0 -- -- 89
2019-11-14 06:00:00 15.4 7 Sudeste 16 Sudeste 0 -- -- 79
2019-11-14 05:00:00 15.4 10 Sudeste 15 Sudeste 0 -- -- 79
2019-11-14 04:00:00 15.1 5 Este 15 Este 0 -- -- 82
2019-11-14 03:00:00 14.8 8 Este 14 Este 0 -- -- 82
2019-11-14 02:00:00 14.9 8 Sudeste 11 Sudeste 0 -- -- 85
2019-11-14 01:00:00 15 9 Sudeste 14 Este 0 -- -- 81
2019-11-14 00:00:00 15 7 Sudeste 21 Este 0 -- -- 82
2019-11-13 23:00:00 15 8 Este 15 Este 0 -- -- 85
2019-11-13 22:00:00 14.8 9 Sudeste 14 Sudeste 0 -- -- 80
2019-11-13 21:00:00 15.1 8 Este 19 Este 0 -- -- 86
2019-11-13 20:00:00 14.8 10 Sudeste 15 Este 0 -- -- 81
2019-11-13 19:00:00 15.2 9 Sudeste 13 Sudeste 0 -- -- 82
2019-11-13 18:00:00 15.7 8 Nordeste 14 Norte 0 -- -- 87
2019-11-13 17:00:00 16.5 9 Nordeste 19 Norte 0 -- -- 83
2019-11-13 16:00:00 17.2 9 Norte 17 Nordeste 0 -- -- 81
2019-11-13 15:00:00 16.6 12 Norte 22 Norte 0 -- -- 84
2019-11-13 14:00:00 16.9 8 Nordeste 19 Nordeste 0 -- -- 82
2019-11-13 13:00:00 17.1 8 Nordeste 18 Nordeste 0 -- -- 83
2019-11-13 12:00:00 17.4 7 Nordeste 16 Este 0 -- -- 82
2019-11-13 11:00:00 16.5 6 Nordeste 14 Este 0 -- -- 85
2019-11-13 10:00:00 16.8 4 Nordeste 17 Sudeste 0 -- -- 78
2019-11-13 09:00:00 15.9 7 Sudeste 14 Sudeste 0 -- -- 80
2019-11-13 08:00:00 14.8 7 Este 17 Sudeste 0 -- -- 86
2019-11-13 07:00:00 14.7 6 Sudeste 14 Este 0 -- -- 84
2019-11-13 06:00:00 15.1 10 Sudeste 18 Sudeste 0 -- -- 83
2019-11-13 05:00:00 13.4 12 Sudeste 17 Sudeste 0 -- -- 84
2019-11-13 04:00:00 12.2 9 Sur 13 Sudeste 0 -- -- 85
2019-11-13 03:00:00 12.6 6 Sudeste 13 Sur 0 -- -- 84
2019-11-13 02:00:00 13.2 7 Sur 14 Sur 0 -- -- 85
2019-11-13 01:00:00 12.1 2 Sur 10 Sudeste 0 -- -- 85
2019-11-13 00:00:00 12.2 5 Sudeste 10 Sudeste 0 -- -- 85
2019-11-12 23:00:00 12.8 9 Sudeste 17 Sudeste 0 -- -- 85
2019-11-12 22:00:00 14.2 8 Sudeste 16 Este 0 -- -- 89
2019-11-12 21:00:00 14.2 8 Sudeste 25 Sudeste 0 -- -- 90
2019-11-12 20:00:00 14.6 11 Sudeste 20 Este 0 -- -- 88
2019-11-12 19:00:00 15.6 6 Sudeste 23 Este 0 -- -- 91
2019-11-12 18:00:00 16.1 8 Este 20 Este 0.2 -- -- 95
2019-11-12 17:00:00 16.3 5 Nordeste 19 Este 2.2 -- -- 94
2019-11-12 16:00:00 17.7 5 Nordeste 15 Norte 0.4 -- -- 91
2019-11-12 15:00:00 17 4 Nordeste 18 Nordeste 0.6 -- -- 93
2019-11-12 14:00:00 16.8 10 Este 18 Este 1.2 -- -- 94
2019-11-12 13:00:00 16.6 6 Sudoeste 16 Nordeste 0.4 -- -- 92
2019-11-12 12:00:00 18.2 12 Este 24 Nordeste 0 -- -- 84
2019-11-12 11:00:00 16.4 11 Este 23 Este 2 -- -- 92
2019-11-12 10:00:00 15.9 5 Sur 18 Sur 1.8 -- -- 92
2019-11-12 09:00:00 15.2 6 Sur 21 Este 0.4 -- -- 92
2019-11-12 08:00:00 15 8 Sudeste 15 Sudeste 0.4 -- -- 91
2019-11-12 07:00:00 15 8 Sudeste 16 Sudeste 0 -- -- 92
2019-11-12 06:00:00 15 7 Sudeste 12 Sudeste 0.2 -- -- 90
2019-11-12 05:00:00 15.2 6 Este 19 Sur 0 -- -- 91
2019-11-12 04:00:00 15.2 11 Sudeste 18 Sur 0 -- -- 85
2019-11-12 03:00:00 15.1 5 Sudeste 17 Este 0 -- -- 87
2019-11-12 02:00:00 15 9 Este 16 Este 0 -- -- 90
2019-11-12 01:00:00 15 8 Sudeste 15 Este 0 -- -- 88
2019-11-12 00:00:00 15.4 9 Sudeste 14 Sudeste 0 -- -- 90
2019-11-11 23:00:00 15.4 12 Sudeste 19 Sudeste 0 -- -- 90
2019-11-11 22:00:00 15 8 Sudeste 13 Sudeste 0.2 -- -- 91
2019-11-11 21:00:00 15.1 9 Sudeste 15 Sudeste 0.4 -- -- 90
2019-11-11 20:00:00 15.2 6 Sudeste 17 Este 0 -- -- 91
2019-11-11 19:00:00 15.5 6 Este 18 Nordeste 0.4 -- -- 92
2019-11-11 18:00:00 15.5 5 Nordeste 20 Este 0.2 -- -- 91
2019-11-11 17:00:00 15.4 0 Calma 19 Este 0.2 -- -- 92
2019-11-11 16:00:00 15.9 6 Este 18 Nordeste 0.2 -- -- 91
2019-11-11 15:00:00 16.8 9 Este 18 Este 0 -- -- 83
2019-11-11 14:00:00 16 4 Este 17 Nordeste 0.2 -- -- 88
2019-11-11 13:00:00 17.1 10 Nordeste 20 Nordeste 0 -- -- 78
2019-11-11 12:00:00 17.4 9 Nordeste 21 Norte 0 -- -- 77
2019-11-11 11:00:00 18 8 Nordeste 15 Sudeste 0 -- -- 75
2019-11-11 10:00:00 16.2 5 Este 19 Sudeste 0.2 -- -- 83
2019-11-11 09:00:00 15.6 5 Sudeste 16 Este 0 -- -- 80
2019-11-11 08:00:00 15.1 9 Nordeste 20 Sudeste 0 -- -- 84
2019-11-11 07:00:00 14.2 11 Sudeste 15 Sudeste 0 -- -- 79
2019-11-11 06:00:00 14.9 7 Sudeste 17 Sudeste 0 -- -- 78
2019-11-11 05:00:00 14.8 6 Sudeste 27 Este 0 -- -- 79
2019-11-11 04:00:00 14.7 12 Este 21 Nordeste 0 -- -- 80
2019-11-11 03:00:00 15.2 4 Este 14 Sudeste 0 -- -- 86
2019-11-11 02:00:00 15.5 5 Este 16 Sudeste -- -- -- 78
2019-11-11 01:00:00 15.2 8 Este 15 Sudeste 0 -- -- 83
2019-11-11 00:00:00 15 9 Sur 13 Este 0 -- -- 79
2019-11-10 23:00:00 15.1 7 Sudeste 19 Sudeste 0 -- -- 81
2019-11-10 22:00:00 15.3 8 Este 15 Sudeste 0 -- -- 78
2019-11-10 21:00:00 15.2 9 Sudeste 12 Este 0 -- -- 85
2019-11-10 20:00:00 16.1 2 Este 12 Sur 0 -- -- 87
2019-11-10 19:00:00 16.4 0 Calma 15 Este 0 -- -- 80
2019-11-10 18:00:00 17 6 Este 18 Norte 0 -- -- 83
2019-11-10 17:00:00 19 9 Nordeste 27 Este 0 -- -- 76
2019-11-10 16:00:00 20.5 15 Este 33 Este 0 -- -- 59
2019-11-10 15:00:00 20.3 18 Este 34 Nordeste 0 -- -- 58
2019-11-10 14:00:00 19.9 16 Este 32 Este 0 -- -- 60
2019-11-10 13:00:00 20 13 Este 35 Nordeste 0 -- -- 59
2019-11-10 12:00:00 19.2 13 Nordeste 24 Nordeste 0 -- -- 68
2019-11-10 11:00:00 17 8 Nordeste 15 Sudeste 0 -- -- 73
2019-11-10 10:00:00 16.6 2 Norte 8 Este 0 -- -- 75
2019-11-10 09:00:00 14.9 6 Sudeste 13 Sudeste 0 -- -- 83
2019-11-10 08:00:00 14.1 9 Sudeste 14 Sudeste 0 -- -- 83
2019-11-10 07:00:00 14.1 6 Sur 16 Sudeste 0 -- -- 88
2019-11-10 06:00:00 13.5 10 Sudeste 15 Sudeste 0 -- -- 84
2019-11-10 05:00:00 14.3 9 Este 18 Nordeste 0 -- -- 87
2019-11-10 04:00:00 14 6 Este 20 Nordeste 0.8 -- -- 92
2019-11-10 03:00:00 14.2 4 Este 10 Este 0 -- -- 89
2019-11-10 02:00:00 14.1 6 Sudeste 19 Este 0 -- -- 85
2019-11-10 01:00:00 13.8 6 Este 21 Nordeste 1 -- -- 94
2019-11-10 00:00:00 13.9 5 Sur 12 Sudeste 0.2 -- -- 89
2019-11-09 23:00:00 13.9 5 Sudeste 13 Sudeste 0.2 -- -- 90
2019-11-09 22:00:00 14.2 8 Sudeste 18 Este 0 -- -- 81
2019-11-09 21:00:00 14.6 8 Sudeste 17 Este 0.4 -- -- 88
2019-11-09 20:00:00 14.2 6 Sudeste 18 Norte 0.4 -- -- 91
2019-11-09 19:00:00 14.5 5 Sudeste 21 Norte 0.4 -- -- 89
2019-11-09 18:00:00 14.7 3 Sudeste 23 Nordeste 0.2 -- -- 90
2019-11-09 17:00:00 15.8 7 Nordeste 22 Nordeste 0 -- -- 76
2019-11-09 16:00:00 15.7 9 Nordeste 20 Norte 0.4 -- -- 81
2019-11-09 15:00:00 15.9 9 Nordeste 26 Nordeste 0.2 -- -- 83
2019-11-09 14:00:00 15.6 6 Norte 27 Nordeste 1 -- -- 86
2019-11-09 13:00:00 17.1 7 Nordeste 26 Norte 0 -- -- 77
2019-11-09 12:00:00 16.9 12 Norte 24 Este 0 -- -- 78
2019-11-09 11:00:00 18.1 10 Nordeste 27 Nordeste 0.2 -- -- 65
2019-11-09 10:00:00 15.8 4 Nordeste 18 Norte 0 -- -- 82
2019-11-09 09:00:00 14.9 4 Sudeste 17 Este 0 -- -- 85
2019-11-09 08:00:00 14.9 14 Este 23 Este 0 -- -- 82
2019-11-09 07:00:00 14.5 4 Sudeste 26 Nordeste 0.4 -- -- 91
2019-11-09 06:00:00 15.1 10 Este 23 Este 0 -- -- 84
2019-11-09 05:00:00 14.7 9 Sudeste 18 Sudeste 0 -- -- 78
2019-11-09 04:00:00 14.4 9 Este 18 Este 0.4 -- -- 85
2019-11-09 03:00:00 15.3 4 Nordeste 11 Nordeste 0 -- -- 88
2019-11-09 02:00:00 15 5 Sur 17 Sudeste 0 -- -- 77
2019-11-09 01:00:00 15.2 10 Sudeste 19 Sudeste 0 -- -- 71
2019-11-09 00:00:00 15.4 6 Sur 14 Este 0 -- -- 72
2019-11-08 23:00:00 15.4 9 Sudeste 16 Sudeste 0 -- -- 71
2019-11-08 22:00:00 15.3 4 Este 15 Sudeste 0 -- -- 78
2019-11-08 21:00:00 15.4 3 Sur 14 Sur 0 -- -- 74
2019-11-08 20:00:00 15.6 3 Nordeste 10 Nordeste 0 -- -- 75
2019-11-08 19:00:00 16.1 0 Calma 16 Nordeste 0 -- -- 75
2019-11-08 18:00:00 16.8 8 Este 27 Nordeste 0 -- -- 73
2019-11-08 17:00:00 17.9 13 Nordeste 28 Nordeste 0 -- -- 71
2019-11-08 16:00:00 20 13 Este 29 Este 0 -- -- 64
2019-11-08 15:00:00 19 13 Nordeste 31 Este 0 -- -- 69
2019-11-08 14:00:00 18.6 15 Nordeste 28 Este 0 -- -- 77
2019-11-08 13:00:00 20.7 13 Nordeste 30 Este 0 -- -- 72
2019-11-08 12:00:00 19.5 14 Este 25 Nordeste 0 -- -- 72
2019-11-08 11:00:00 20 14 Este 26 Este 0 -- -- 67
2019-11-08 10:00:00 20.2 8 Este 19 Este 0 -- -- 64
2019-11-08 09:00:00 17 10 Sudeste 26 Sudeste 0 -- -- 77
2019-11-08 08:00:00 16.1 13 Sudeste 21 Sudeste 0 -- -- 77
2019-11-08 07:00:00 16.2 13 Sudeste 23 Sudeste 0 -- -- 79
2019-11-08 06:00:00 15.8 9 Sudeste 26 Sudeste 0 -- -- 80
2019-11-08 05:00:00 15.5 6 Este 17 Este 0 -- -- 86
2019-11-08 04:00:00 15.3 7 Este 15 Este 0 -- -- 87
2019-11-08 03:00:00 15.1 8 Sudeste 14 Sudeste 0 -- -- 86
2019-11-08 02:00:00 14.5 7 Sudeste 13 Este 0 -- -- 92
2019-11-08 01:00:00 15.4 4 Nordeste 9 Sur 0.2 -- -- 94
2019-11-08 00:00:00 15.3 3 Nordeste 19 Sudeste 0 -- -- 93
2019-11-07 23:00:00 15.6 0 Calma 14 Sudeste 0 -- -- 90
2019-11-07 22:00:00 15.4 3 Norte 10 Sur 0.2 -- -- 93
2019-11-07 21:00:00 15.3 5 Sudoeste 12 Sur 1 -- -- 95
2019-11-07 20:00:00 15.5 4 Nordeste 17 Nordeste 0.4 -- -- 93
2019-11-07 19:00:00 15.9 2 Sudoeste 8 Este 0 -- -- 93
2019-11-07 18:00:00 16.5 5 Norte 22 Sudeste 0 -- -- 91
2019-11-07 17:00:00 16.9 9 Este 21 Nordeste 0 -- -- 82
2019-11-07 16:00:00 17.8 11 Nordeste 24 Nordeste 0 -- -- 75
2019-11-07 15:00:00 17 8 Nordeste 26 Nordeste 0.2 -- -- 89
2019-11-07 14:00:00 18.1 9 Nordeste 23 Norte 0 -- -- 78
2019-11-07 13:00:00 18 6 Nordeste 22 Norte 0 -- -- 77
2019-11-07 12:00:00 17.5 8 Nordeste 18 Norte 0.2 -- -- 81
2019-11-07 11:00:00 16.5 9 Norte 15 Nordeste 0.2 -- -- 90
2019-11-07 10:00:00 16 2 Sur 10 Nordeste 1.8 -- -- 92
2019-11-07 09:00:00 15.4 0 Calma 16 Este 0.6 -- -- 88
2019-11-07 08:00:00 14.8 8 Sudeste 17 Nordeste 0 -- -- 89
2019-11-07 07:00:00 15 8 Sudeste 16 Este 0 -- -- 87
2019-11-07 06:00:00 14.8 9 Sudeste 18 Este 0 -- -- 79
2019-11-07 05:00:00 14.4 7 Sudeste 12 Sudeste 0 -- -- 87
2019-11-07 04:00:00 14.1 10 Sudeste 15 Sudeste 0 -- -- 85
2019-11-07 03:00:00 13.8 10 Sudeste 15 Sudeste 0 -- -- 87
2019-11-07 02:00:00 14.4 9 Sudeste 15 Sudeste 0 -- -- 87
2019-11-07 01:00:00 14.1 10 Este 18 Este 0.6 -- -- 90
2019-11-07 00:00:00 14.2 9 Este 21 Este 0.4 -- -- 90
2019-11-06 23:00:00 14.2 9 Este 19 Este 1.2 -- -- 93
2019-11-06 22:00:00 14.4 7 Sudeste 18 Este 0.4 -- -- 91
2019-11-06 21:00:00 14.6 6 Este 20 Este 2.6 -- -- 95
2019-11-06 20:00:00 14.5 6 Este 17 Nordeste 0.4 -- -- 93
2019-11-06 19:00:00 14.5 7 Este 17 Sudoeste 1.6 -- -- 94
2019-11-06 18:00:00 14.5 6 Sur 25 Este 0 -- -- 88
2019-11-06 17:00:00 15 13 Este 26 Este 0.2 -- -- 92
2019-11-06 16:00:00 16.7 7 Noroeste 22 Norte 0 -- -- 81
2019-11-06 15:00:00 17.1 3 Norte 18 Norte 0 -- -- 78
2019-11-06 14:00:00 16.7 9 Norte 20 Nordeste 0 -- -- 84
2019-11-06 13:00:00 15.9 2 Sudoeste 12 Oeste 0.2 -- -- 88
2019-11-06 12:00:00 15.1 9 Nordeste 21 Norte 0.2 -- -- 88
2019-11-06 11:00:00 15.7 4 Norte 18 Este 0 -- -- 83
2019-11-06 10:00:00 14 9 Nordeste 27 Oeste 3.6 -- -- 97
2019-11-06 09:00:00 14.8 6 Sudoeste 12 Sudoeste 0 -- -- 90
2019-11-06 08:00:00 14.3 6 Sudeste 15 Este 0 -- -- 90
2019-11-06 07:00:00 14.1 8 Este 18 Nordeste 0 -- -- 90
2019-11-06 06:00:00 13.9 6 Sudeste 17 Este 0 -- -- 89
2019-11-06 05:00:00 14.2 7 Nordeste 17 Este 0.4 -- -- 92
2019-11-06 04:00:00 14 4 Sur 5 Sur 0 -- -- 91
2019-11-06 03:00:00 14.6 0 Calma 9 Nordeste 0.2 -- -- 90
2019-11-06 02:00:00 14.6 3 Nordeste 11 Sudeste 0.2 -- -- 91
2019-11-06 01:00:00 14.5 3 Este 12 Nordeste 0.2 -- -- 91
2019-11-06 00:00:00 14.8 4 Nordeste 17 Nordeste 0.2 -- -- 92
2019-11-05 23:00:00 14.9 9 Nordeste 24 Nordeste 0.8 -- -- 97
2019-11-05 22:00:00 15.3 14 Nordeste 25 Nordeste 2.6 -- -- 98
2019-11-05 21:00:00 15.4 5 Nordeste 18 Norte 5.6 -- -- 99
2019-11-05 20:00:00 15 3 Noroeste 24 Norte 5.6 -- -- 98
2019-11-05 19:00:00 16.4 10 Norte 22 Norte 3 -- -- 96
2019-11-05 18:00:00 18.3 5 Oeste 14 Norte 0 -- -- 79
2019-11-05 17:00:00 19.2 8 Noroeste 14 Noroeste 0 -- -- 80
2019-11-05 16:00:00 19.4 8 Noroeste 18 Oeste 0 -- -- 75
2019-11-05 15:00:00 20.5 9 Noroeste 18 Oeste 0 -- -- 67
2019-11-05 14:00:00 21.7 9 Noroeste 22 Noroeste 0 -- -- 60
2019-11-05 13:00:00 21.5 7 Oeste 23 Noroeste 0 -- -- 58
2019-11-05 12:00:00 20.3 8 Oeste 18 Noroeste 0 -- -- 75
2019-11-05 11:00:00 19.2 6 Oeste 13 Sudoeste 0 -- -- 77
2019-11-05 10:00:00 19.8 8 Noroeste 15 Noroeste 0 -- -- 74
2019-11-05 09:00:00 17.7 5 Sur 9 Sur 0 -- -- 73
2019-11-05 08:00:00 14.1 6 Sur 9 Sudeste 0 -- -- 85
2019-11-05 07:00:00 13.8 5 Sur 10 Sur 0 -- -- 84
2019-11-05 06:00:00 15.7 7 Sur 13 Sur 0 -- -- 77
2019-11-05 05:00:00 15.3 9 Sur 13 Sur 0 -- -- 78
2019-11-05 04:00:00 16.3 10 Sudoeste 15 Sudoeste 0 -- -- 78
2019-11-05 03:00:00 16.8 6 Sudoeste 17 Nordeste 0 -- -- 76
2019-11-05 02:00:00 18.1 4 Nordeste 27 Sur 0 -- -- 70
2019-11-05 01:00:00 16.5 5 Sudoeste 15 Oeste 0 -- -- 88
2019-11-05 00:00:00 17 3 Oeste 16 Sur 0 -- -- 85
2019-11-04 23:00:00 16.7 6 Noroeste 15 Noroeste 0 -- -- 95
2019-11-04 22:00:00 16.9 8 Noroeste 13 Noroeste 0 -- -- 95
2019-11-04 21:00:00 17.1 8 Noroeste 15 Noroeste 0 -- -- 95
2019-11-04 20:00:00 17 3 Norte 9 Nordeste 0 -- -- 94
2019-11-04 19:00:00 17.3 2 Oeste 10 Norte 0 -- -- 93
2019-11-04 18:00:00 17.5 7 Norte 15 Norte 0 -- -- 91
2019-11-04 17:00:00 18.3 5 Norte 12 Noroeste 0 -- -- 87
2019-11-04 16:00:00 19.3 9 Noroeste 19 Norte 0 -- -- 82
2019-11-04 15:00:00 21.2 9 Norte 19 Norte 0 -- -- 70
2019-11-04 14:00:00 21 11 Norte 18 Norte 0 -- -- 68
2019-11-04 13:00:00 21.8 8 Noroeste 18 Noroeste 0 -- -- 68
2019-11-04 12:00:00 20.9 10 Norte 26 Norte 0 -- -- 70
2019-11-04 11:00:00 20 11 Norte 18 Nordeste 0 -- -- 69
2019-11-04 10:00:00 20.4 5 Nordeste 13 Este 0 -- -- 66
2019-11-04 09:00:00 16.8 6 Sudeste 13 Sudeste 0 -- -- 72
2019-11-04 08:00:00 13.3 9 Sudeste 13 Sudeste 0 -- -- 89
2019-11-04 07:00:00 13.2 10 Sudeste 15 Sudeste 0 -- -- 90
2019-11-04 06:00:00 13 10 Sudeste 12 Sudeste 0 -- -- 92
2019-11-04 05:00:00 13.1 6 Sur 9 Sudeste 0 -- -- 92
2019-11-04 04:00:00 13.8 8 Sur 13 Sudeste 0 -- -- 89
2019-11-04 03:00:00 13.7 6 Sudeste 13 Sudeste 0 -- -- 85
2019-11-04 02:00:00 14.3 9 Sudeste 17 Sudeste 0 -- -- 85
2019-11-04 01:00:00 14.6 10 Sudeste 16 Sudeste 0 -- -- 83
2019-11-04 00:00:00 14.5 9 Sudeste 13 Sudeste 0 -- -- 81
2019-11-03 23:00:00 14.6 6 Sudeste 10 Sudeste 0 -- -- 72
2019-11-03 22:00:00 14.6 4 Sudeste 8 Sudeste 0 -- -- 85
2019-11-03 21:00:00 16.5 2 Sudeste 8 Sudeste 0 -- -- 71
2019-11-03 20:00:00 15.9 5 Sur 8 Sudeste 0 -- -- 88
2019-11-03 19:00:00 16.5 3 Este 7 Norte 0 -- -- 90
2019-11-03 18:00:00 19.8 2 Nordeste 11 Norte 0 -- -- 84
2019-11-03 17:00:00 19.7 4 Norte 16 Norte 0 -- -- 88
2019-11-03 16:00:00 22.6 8 Norte 16 Norte 0 -- -- 76
2019-11-03 15:00:00 22.2 8 Norte 20 Norte 0 -- -- 72
2019-11-03 14:00:00 21.3 8 Norte 17 Norte 0 -- -- 81
2019-11-03 13:00:00 21.7 9 Norte 16 Norte 0 -- -- 76
2019-11-03 12:00:00 23.1 5 Noroeste 12 Noroeste 0 -- -- 71
2019-11-03 11:00:00 23.9 5 Oeste 10 Noroeste 0 -- -- 64
2019-11-03 10:00:00 23.8 3 Oeste 6 Norte 0 -- -- 49
2019-11-03 09:00:00 20.8 5 Sur 17 Sudeste 0 -- -- 57
2019-11-03 08:00:00 17.9 10 Sudeste 16 Sudeste 0 -- -- 62
2019-11-03 07:00:00 17.4 8 Sudeste 14 Sudeste 0 -- -- 61
2019-11-03 06:00:00 18.9 13 Sudeste 19 Sudeste 0 -- -- 54
2019-11-03 05:00:00 18.4 9 Sudeste 16 Sudeste 0 -- -- 57
2019-11-03 04:00:00 18.2 9 Sudeste 14 Sudeste 0 -- -- 57
2019-11-03 03:00:00 18.7 9 Sur 15 Sur 0 -- -- 56
2019-11-03 02:00:00 19.1 6 Sur 12 Sudeste 0 -- -- 54
2019-11-03 01:00:00 19.1 7 Sudeste 13 Sur 0 -- -- 55
2019-11-03 00:00:00 19.4 5 Sudoeste 9 Sudeste 0 -- -- 55
2019-11-02 23:00:00 19.9 5 Sudeste 12 Este 0 -- -- 52
2019-11-02 22:00:00 20.4 6 Sudeste 14 Sudeste 0 -- -- 51
2019-11-02 21:00:00 19.2 3 Este 10 Sudeste 0 -- -- 59
2019-11-02 20:00:00 19 0 Calma 9 Este 0 -- -- 63
2019-11-02 19:00:00 20.6 7 Sudeste 13 Este 0 -- -- 54
2019-11-02 18:00:00 22.6 3 Noroeste 8 Noroeste 0 -- -- 80
2019-11-02 17:00:00 24.4 2 Oeste 15 Noroeste 0 -- -- 74
2019-11-02 16:00:00 25.6 5 Noroeste 15 Noroeste 0 -- -- 70
2019-11-02 15:00:00 24.1 5 Noroeste 12 Noroeste 0 -- -- 75
2019-11-02 14:00:00 23.3 7 Noroeste 13 Noroeste 0 -- -- 78
2019-11-02 13:00:00 22.8 6 Noroeste 14 Noroeste 0 -- -- 80
2019-11-02 12:00:00 22.3 4 Noroeste 27 Sur 0 -- -- 78
2019-11-02 11:00:00 25.7 10 Nordeste 24 Sudeste 0 -- -- 59
2019-11-02 10:00:00 22 5 Noroeste 30 Sudeste 0 -- -- 71
2019-11-02 09:00:00 25.3 11 Este 26 Sudeste 0 -- -- 40
2019-11-02 08:00:00 17.4 4 Sudoeste 19 Sudeste 0 -- -- 86
2019-11-02 07:00:00 15.9 4 Sudoeste 11 Sur 0 -- -- 95
2019-11-02 06:00:00 15.7 5 Sur 9 Sur 0 -- -- 97
2019-11-02 05:00:00 15.3 5 Sur 10 Sur 0 -- -- 95
2019-11-02 04:00:00 16.2 8 Sudoeste 10 Sudoeste 0 -- -- 96
2019-11-02 03:00:00 15.1 0 Calma 8 Sudeste 0 -- -- 95
2019-11-02 02:00:00 15.7 5 Sur 8 Sudeste 0 -- -- 95
2019-11-02 01:00:00 15.5 3 Sudeste 9 Sur 0 -- -- 95
2019-11-02 00:00:00 16.4 6 Sur 9 Sur 0 -- -- 96
2019-11-01 23:00:00 15.4 0 Calma 9 Sur 0 -- -- 94
2019-11-01 22:00:00 17.4 3 Sudoeste 6 Sudoeste 0 -- -- 94
2019-11-01 21:00:00 17.6 4 Nordeste 8 Este 0 -- -- 94
2019-11-01 20:00:00 17.3 0 Calma 12 Sudeste 0 -- -- 95
2019-11-01 19:00:00 18.2 3 Sur 10 Sudoeste 0 -- -- 92
2019-11-01 18:00:00 19.5 8 Noroeste 14 Noroeste 0 -- -- 89
2019-11-01 17:00:00 22.9 7 Noroeste 14 Noroeste 0 -- -- 75
2019-11-01 16:00:00 23.7 8 Noroeste 18 Norte 0 -- -- 71
2019-11-01 15:00:00 23.8 8 Noroeste 15 Noroeste 0 -- -- 71
2019-11-01 14:00:00 23.5 9 Noroeste 18 Oeste 0 -- -- 71
2019-11-01 13:00:00 23.1 9 Oeste 19 Oeste 0 -- -- 72
2019-11-01 12:00:00 23.2 9 Oeste 19 Oeste 0 -- -- 69
2019-11-01 11:00:00 22 9 Oeste 19 Oeste 0 -- -- 75
2019-11-01 10:00:00 20.6 6 Sudoeste 14 Sudoeste 0 -- -- 78
2019-11-01 09:00:00 19 8 Sur 13 Sur 0 -- -- 80
2019-11-01 08:00:00 16.9 5 Sur 17 Sudoeste 0 -- -- 88
2019-11-01 07:00:00 16.9 9 Sur 15 Sudoeste 0 -- -- 88
2019-11-01 06:00:00 16.3 7 Sur 13 Sur 0 -- -- 92
2019-11-01 05:00:00 15.9 4 Sudeste 16 Norte 0 -- -- 92
2019-11-01 04:00:00 16.2 3 Nordeste 17 Sudeste 0 -- -- 92
2019-11-01 03:00:00 16.7 8 Sudoeste 17 Este 0 -- -- 93
2019-11-01 02:00:00 18 9 Nordeste 20 Nordeste 0 -- -- 84
2019-11-01 01:00:00 15.4 4 Sudeste 9 Sur 0 -- -- 91
2019-11-01 00:00:00 15.9 4 Sudeste 10 Sudeste 0 -- -- 93
2019-10-31 23:00:00 16 5 Sur 9 Sudeste 0 -- -- 94
2019-10-31 22:00:00 15.7 5 Sudeste 9 Sur 0 -- -- 92
2019-10-31 21:00:00 16.8 9 Sur 12 Sur 0 -- -- 91
2019-10-31 20:00:00 17.2 7 Sur 10 Sur 0 -- -- 92
2019-10-31 19:00:00 18 3 Sudoeste 8 Norte 0 -- -- 91
2019-10-31 18:00:00 19.9 6 Norte 14 Norte 0 -- -- 82
2019-10-31 17:00:00 22.1 8 Norte 17 Norte 0 -- -- 74
2019-10-31 16:00:00 23.6 6 Norte 20 Norte 0 -- -- 69
2019-10-31 15:00:00 22.8 7 Norte 19 Norte 0 -- -- 71
2019-10-31 14:00:00 23.6 9 Norte 15 Noroeste 0 -- -- 71
2019-10-31 13:00:00 24.6 6 Oeste 17 Noroeste 0 -- -- 67
2019-10-31 12:00:00 23.9 6 Noroeste 14 Noroeste 0 -- -- 69
2019-10-31 11:00:00 23.7 6 Noroeste 12 Oeste 0 -- -- 66
2019-10-31 10:00:00 24.4 4 Noroeste 8 Norte 0 -- -- 56
2019-10-31 09:00:00 23 2 Noroeste 13 Noroeste 0 -- -- 54
2019-10-31 08:00:00 20.3 4 Este 18 Este 0 -- -- 61
2019-10-31 07:00:00 18.3 4 Sudeste 12 Sudeste 0 -- -- 69
2019-10-31 06:00:00 21.4 8 Este 18 Este 0 -- -- 57
2019-10-31 05:00:00 19.7 9 Sudeste 13 Sudeste 0 -- -- 61
2019-10-31 04:00:00 20.6 8 Este 16 Este 0 -- -- 56
2019-10-31 03:00:00 21.2 9 Sudeste 18 Sudeste 0 -- -- 53
2019-10-31 02:00:00 21.4 9 Sudeste 14 Sudeste 0 -- -- 53
2019-10-31 01:00:00 20.2 3 Este 9 Sudeste 0 -- -- 52
2019-10-31 00:00:00 22.2 4 Este 14 Este 0 -- -- 46
2019-10-30 23:00:00 20.9 6 Sudeste 19 Sudeste 0 -- -- 50
2019-10-30 22:00:00 20.7 14 Sudeste 20 Sudeste 0 -- -- 55
2019-10-30 21:00:00 21 13 Sudeste 18 Sudeste 0 -- -- 49
2019-10-30 20:00:00 21.6 13 Sudeste 17 Sudeste 0 -- -- 49
2019-10-30 19:00:00 22 6 Sudeste 14 Este 0 -- -- 56
2019-10-30 18:00:00 25.3 0 Calma 8 Noroeste 0 -- -- 62
2019-10-30 17:00:00 27.8 4 Noroeste 12 Norte 0 -- -- 52
2019-10-30 16:00:00 28.2 6 Noroeste 13 Norte 0 -- -- 44
2019-10-30 15:00:00 28.1 7 Noroeste 15 Noroeste 0 -- -- 49
2019-10-30 14:00:00 27.7 6 Norte 12 Noroeste 0 -- -- 52
2019-10-30 13:00:00 28.3 6 Noroeste 11 Noroeste 0 -- -- 50
2019-10-30 12:00:00 27.1 5 Norte 12 Noroeste 0 -- -- 49
2019-10-30 11:00:00 27.2 4 Noroeste 8 Noroeste 0 -- -- 50
2019-10-30 10:00:00 26.5 4 Norte 6 Nordeste 0 -- -- 48
2019-10-30 09:00:00 24.3 0 Calma 17 Sur 0 -- -- 53
2019-10-30 08:00:00 22.5 13 Sur 17 Sudeste 0 -- -- 57
2019-10-30 07:00:00 20.6 11 Sur 15 Sur 0 -- -- 65
2019-10-30 06:00:00 22.2 12 Sur 18 Sur 0 -- -- 59
2019-10-30 05:00:00 21.8 14 Sur 16 Sur 0 -- -- 59
2019-10-30 04:00:00 20.7 12 Sur 14 Sur 0 -- -- 61
2019-10-30 03:00:00 20.8 12 Sur 15 Sudeste 0 -- -- 60
2019-10-30 02:00:00 20.6 11 Sur 14 Sur 0 -- -- 63
2019-10-30 01:00:00 19.7 8 Sur 11 Sur 0 -- -- 65
2019-10-30 00:00:00 19.6 9 Sudeste 14 Sudeste 0 -- -- 66
2019-10-29 23:00:00 20 8 Sudeste 18 Sudeste 0 -- -- 67
2019-10-29 22:00:00 20.1 10 Sudeste 14 Sur 0 -- -- 67
2019-10-29 21:00:00 20.7 9 Sur 14 Sur 0 -- -- 64
2019-10-29 20:00:00 21.3 7 Sur 13 Sur 0 -- -- 62
2019-10-29 19:00:00 21.9 7 Sur 11 Sur 0 -- -- 62
2019-10-29 18:00:00 22.6 3 Sudeste 10 Noroeste 0 -- -- 80
2019-10-29 17:00:00 25.6 4 Noroeste 10 Noroeste 0 -- -- 67
2019-10-29 16:00:00 28 4 Noroeste 11 Norte 0 -- -- 49
2019-10-29 15:00:00 29.5 6 Noroeste 12 Noroeste 0 -- -- 37
2019-10-29 14:00:00 29 5 Norte 10 Noroeste 0 -- -- 38
2019-10-29 13:00:00 29.5 6 Noroeste 10 Noroeste 0 -- -- 40
2019-10-29 12:00:00 28.9 6 Noroeste 9 Noroeste 0 -- -- 45
2019-10-29 11:00:00 29.2 0 Calma 9 Oeste 0 -- -- 43
2019-10-29 10:00:00 27.7 2 Oeste 6 Sudeste 0 -- -- 45
2019-10-29 09:00:00 23.7 4 Sudeste 13 Sudeste 0 -- -- 55
2019-10-29 08:00:00 19.9 6 Sudeste 12 Sur 0 -- -- 62
2019-10-29 07:00:00 21.5 10 Sur 14 Sur 0 -- -- 54
2019-10-29 06:00:00 19.4 6 Sur 15 Sudeste 0 -- -- 63
2019-10-29 05:00:00 19.6 7 Sudeste 14 Sudeste 0 -- -- 61
2019-10-29 04:00:00 19.4 6 Sudeste 18 Sudeste 0 -- -- 64
2019-10-29 03:00:00 19.1 7 Sudeste 12 Sudeste 0 -- -- 64
2019-10-29 02:00:00 19.7 4 Sudeste 14 Sudeste 0 -- -- 61
2019-10-29 01:00:00 19.5 7 Sudeste 12 Sudeste 0 -- -- 65
2019-10-29 00:00:00 19.2 10 Sudeste 13 Sudeste 0 -- -- 72
2019-10-28 23:00:00 19.2 5 Sur 10 Sudeste 0 -- -- 73
2019-10-28 22:00:00 20.4 3 Sudeste 15 Sudeste 0 -- -- 67
2019-10-28 21:00:00 19.6 5 Sudeste 13 Sudeste 0 -- -- 72
2019-10-28 20:00:00 19.6 2 Sudeste 12 Sudeste 0 -- -- 76
2019-10-28 19:00:00 21 2 Nordeste 9 Sudeste 0 -- -- 74
2019-10-28 18:00:00 24.4 0 Calma 8 Noroeste 0 -- -- 59
2019-10-28 17:00:00 26.1 5 Noroeste 10 Noroeste 0 -- -- 56
2019-10-28 16:00:00 26.4 5 Noroeste 12 Noroeste 0 -- -- 52
2019-10-28 15:00:00 26.1 7 Noroeste 14 Noroeste 0 -- -- 53
2019-10-28 14:00:00 26.9 7 Noroeste 15 Noroeste 0 -- -- 56
2019-10-28 13:00:00 26 8 Noroeste 12 Oeste 0 -- -- 59
2019-10-28 12:00:00 26.8 4 Noroeste 10 Oeste 0 -- -- 53
2019-10-28 11:00:00 26.1 5 Noroeste 9 Noroeste 0 -- -- 54
2019-10-28 10:00:00 26.3 4 Noroeste 9 Este 0 -- -- 49
2019-10-28 09:00:00 22.5 6 Sudeste 13 Sur 0 -- -- 63
2019-10-28 08:00:00 20.5 9 Sur 14 Sur 0 -- -- 65
2019-10-28 07:00:00 18.6 7 Sur 14 Sur 0 -- -- 73
2019-10-28 06:00:00 18.6 9 Sudeste 15 Sudeste 0 -- -- 74
2019-10-28 05:00:00 19.2 10 Sur 14 Sudeste 0 -- -- 70
2019-10-28 04:00:00 19.4 10 Sur 14 Sudeste 0 -- -- 69
2019-10-28 03:00:00 19.2 9 Sudeste 17 Sudeste 0 -- -- 72
2019-10-28 02:00:00 19.4 12 Sudeste 15 Sudeste 0 -- -- 69
2019-10-28 01:00:00 19.8 8 Sudeste 12 Sudeste 0 -- -- 67
2019-10-28 00:00:00 19.7 4 Sudeste 12 Sudeste 0 -- -- 69
2019-10-27 23:00:00 19.4 6 Sur 12 Sudeste 0 -- -- 73
2019-10-27 22:00:00 19.4 5 Sudoeste 13 Sur 0 -- -- 76
2019-10-27 21:00:00 18.8 4 Sur 9 Sur 0 -- -- 92
2019-10-27 20:00:00 19.4 2 Sudoeste 12 Noroeste 0 -- -- 96
2019-10-27 19:00:00 21 2 Oeste 19 Sudeste 0 -- -- 87
2019-10-27 18:00:00 23.4 10 Sudeste 14 Sudeste 0 -- -- 57
2019-10-27 17:00:00 25.8 9 Sudeste 26 Sudeste 0 -- -- 48
2019-10-27 16:00:00 23.9 17 Sudeste 22 Sudeste 0 -- -- 60
2019-10-27 15:00:00 22.4 5 Noroeste 16 Noroeste 0 -- -- 86
2019-10-27 14:00:00 23 5 Sur 11 Noroeste 0 -- -- 75
2019-10-27 13:00:00 23.6 5 Noroeste 9 Norte 0 -- -- 73
2019-10-27 12:00:00 23.3 5 Noroeste 13 Norte 0 -- -- 73
2019-10-27 11:00:00 24.4 8 Norte 13 Norte 0 -- -- 68
2019-10-27 10:00:00 21.6 7 Sudeste 21 Noroeste 0 -- -- 82
2019-10-27 09:00:00 22.7 4 Sudeste 10 Sudeste 0 -- -- 74
2019-10-27 08:00:00 22.8 8 Sur 26 Sudeste 0 -- -- 65
2019-10-27 07:00:00 23.9 15 Sudeste 26 Sudeste 0 -- -- 52
2019-10-27 06:00:00 22.6 15 Sudeste 21 Sudeste 0 -- -- 62
2019-10-27 05:00:00 21.7 6 Sudeste 13 Sudeste 0 -- -- 74
2019-10-27 04:00:00 21.4 10 Sudeste 17 Sudeste 0 -- -- 74
2019-10-27 03:00:00 22.1 6 Sur 19 Sudeste 0 -- -- 72
2019-10-27 02:00:00 22.2 10 Sudeste 21 Sudeste 0 -- -- 73
2019-10-27 01:00:00 22.2 8 Sur 13 Sur 0 -- -- 75
2019-10-27 00:00:00 22.8 6 Sur 14 Sur 0 -- -- 69
2019-10-26 23:00:00 21.9 6 Sudeste 15 Sur 0 -- -- 76
2019-10-26 22:00:00 20.5 8 Sudoeste 13 Sur 0 -- -- 85
2019-10-26 21:00:00 20 4 Nordeste 15 Noroeste 0 -- -- 89
2019-10-26 20:00:00 22.1 4 Este 24 Sur 0 -- -- 78
2019-10-26 19:00:00 22 5 Sudeste 13 Este 0 -- -- 83
2019-10-26 18:00:00 23.3 7 Este 13 Este 0 -- -- 74
2019-10-26 17:00:00 22.3 11 Este 20 Este 0 -- -- 76
2019-10-26 16:00:00 21.2 12 Sudeste 19 Sudeste 0 -- -- 81
2019-10-26 15:00:00 20.6 11 Sudeste 30 Sudeste 1.4 -- -- 86
2019-10-26 14:00:00 20.9 13 Sudeste 24 Sudeste 5.2 -- -- 87
2019-10-26 13:00:00 19.8 9 Sur 14 Sur 12 -- -- 97
2019-10-26 12:00:00 21.7 13 Este 25 Sudeste 1.6 -- -- 86
2019-10-26 11:00:00 22.1 9 Sudeste 24 Sudeste 0 -- -- 74
2019-10-26 10:00:00 19 9 Sur 31 Sudeste 1.6 -- -- 90
2019-10-26 09:00:00 17.8 13 Sur 23 Oeste 12 -- -- 93
2019-10-26 08:00:00 21.6 7 Nordeste 27 Sudeste 0.2 -- -- 71
2019-10-26 07:00:00 19.1 18 Sudeste 27 Sudeste 0 -- -- 67
2019-10-26 06:00:00 17.9 13 Sur 34 Oeste 0.2 -- -- 79
2019-10-26 05:00:00 22.7 4 Sudeste 25 Sudeste 0 -- -- 66
2019-10-26 04:00:00 22.3 6 Sudeste 15 Sudeste 0 -- -- 63
2019-10-26 03:00:00 21.3 6 Sudeste 13 Sudeste 0 -- -- 63
2019-10-26 02:00:00 20.5 6 Sudeste 14 Sudeste 0 -- -- 66
2019-10-26 01:00:00 20.6 6 Sudeste 16 Sudeste 0 -- -- 60
2019-10-26 00:00:00 18.2 3 Oeste 21 Sudeste 0 -- -- 66
2019-10-25 23:00:00 18.4 7 Sur 19 Sudeste 0 -- -- 67
2019-10-25 22:00:00 17.9 4 Sur 14 Este 0 -- -- 70
2019-10-25 21:00:00 18.1 5 Este 18 Sudeste 0 -- -- 69
2019-10-25 20:00:00 19.1 9 Sudeste 16 Este 0 -- -- 66
2019-10-25 19:00:00 19.8 3 Sudeste 14 Sudeste 0 -- -- 70
2019-10-25 18:00:00 19.9 5 Sur 9 Sudeste 0 -- -- 63
2019-10-25 17:00:00 20.7 4 Sudeste 9 Sudoeste 0 -- -- 64
2019-10-25 16:00:00 19.8 5 Oeste 13 Sudeste 0 -- -- 73
2019-10-25 15:00:00 19.4 3 Nordeste 15 Sudoeste 0 -- -- 67
2019-10-25 14:00:00 19 5 Sur 15 Noroeste 0 -- -- 69
2019-10-25 13:00:00 19.1 4 Oeste 15 Noroeste 0 -- -- 71
2019-10-25 12:00:00 19.2 5 Sur 11 Oeste 0 -- -- 67
2019-10-25 11:00:00 17.9 4 Oeste 7 Oeste 0 -- -- 66
2019-10-25 10:00:00 16.1 3 Sudoeste 6 Oeste 0 -- -- 71
2019-10-25 09:00:00 14.5 3 Sudeste 13 Sudeste 0 -- -- 74
2019-10-25 08:00:00 13.3 5 Sur 10 Sudeste 0 -- -- 76
2019-10-25 07:00:00 13 5 Sur 13 Sudeste 0 -- -- 76
2019-10-25 06:00:00 13.9 9 Sudeste 14 Sudeste 0 -- -- 68
2019-10-25 05:00:00 12.1 10 Sudeste 16 Sudeste 0 -- -- 77
2019-10-25 04:00:00 12.7 9 Sur 13 Sur 0 -- -- 79
2019-10-25 03:00:00 13.3 11 Sur 18 Sur 0 -- -- 77
2019-10-25 02:00:00 13.2 12 Sur 17 Sur 0 -- -- 80
2019-10-25 01:00:00 13.5 13 Sur 15 Sur 0 -- -- 82
2019-10-25 00:00:00 13.1 12 Sur 17 Sur 0 -- -- 83
2019-10-24 23:00:00 12.4 11 Sudeste 15 Sudeste 0 -- -- 85
2019-10-24 22:00:00 12.4 15 Sudeste 17 Sudeste 0 -- -- 81
2019-10-24 21:00:00 13.8 11 Sur 13 Sur 0 -- -- 80
2019-10-24 20:00:00 14.4 6 Sur 11 Oeste 0 -- -- 81
2019-10-24 19:00:00 18.6 8 Oeste 14 Noroeste 0 -- -- 62
2019-10-24 18:00:00 19.5 7 Noroeste 13 Noroeste 0 -- -- 56
2019-10-24 17:00:00 20 6 Noroeste 13 Noroeste 0 -- -- 59
2019-10-24 16:00:00 18.5 7 Noroeste 19 Noroeste 0 -- -- 60
2019-10-24 15:00:00 20 9 Noroeste 17 Noroeste 0 -- -- 56
2019-10-24 14:00:00 19.9 10 Noroeste 15 Noroeste 0 -- -- 56
2019-10-24 13:00:00 19.7 7 Noroeste 14 Noroeste 0 -- -- 54
2019-10-24 12:00:00 19.5 7 Noroeste 13 Oeste 0 -- -- 57
2019-10-24 11:00:00 19 5 Noroeste 9 Oeste 0 -- -- 59
2019-10-24 10:00:00 15.4 9 Sur 18 Sudeste 0 -- -- 71
2019-10-24 09:00:00 12.8 12 Sudeste 19 Sudeste 0 -- -- 79
2019-10-24 08:00:00 11.9 12 Sudeste 19 Sudeste 0 -- -- 79
2019-10-24 07:00:00 12.1 13 Sudeste 17 Sur 0 -- -- 75
2019-10-24 06:00:00 11.6 10 Sur 15 Sur 0 -- -- 78
2019-10-24 05:00:00 11.1 7 Sudeste 17 Sudeste 0 -- -- 83
2019-10-24 04:00:00 11.6 9 Sudeste 21 Sudeste 0 -- -- 83
2019-10-24 03:00:00 11.4 13 Sudeste 18 Sudeste 0 -- -- 83
2019-10-24 02:00:00 12.2 8 Sur 16 Sudeste 0 -- -- 79
2019-10-24 01:00:00 12.5 12 Sudeste 17 Sudeste 0 -- -- 76
2019-10-24 00:00:00 13.7 10 Sudeste 20 Sudeste 0 -- -- 76
2019-10-23 23:00:00 14 13 Sudeste 28 Sudeste 0 -- -- 77
2019-10-23 22:00:00 14.3 17 Sudeste 24 Sudeste 0 -- -- 70
2019-10-23 21:00:00 13.4 14 Sudeste 19 Sudeste 0 -- -- 78
2019-10-23 20:00:00 14 10 Sudeste 13 Sudeste 0 -- -- 83
2019-10-23 19:00:00 16.6 6 Sudoeste 12 Norte 0 -- -- 75
2019-10-23 18:00:00 18 8 Norte 12 Norte 0 -- -- 70
2019-10-23 17:00:00 17.6 6 Norte 15 Norte 0 -- -- 66
2019-10-23 16:00:00 18 8 Norte 17 Norte 0 -- -- 71
2019-10-23 15:00:00 18.2 8 Noroeste 14 Norte 0 -- -- 67
2019-10-23 14:00:00 18.3 8 Noroeste 16 Norte 0 -- -- 69
2019-10-23 13:00:00 17.1 11 Nordeste 25 Nordeste 0 -- -- 72
2019-10-23 12:00:00 16.3 11 Norte 26 Norte 0 -- -- 85
2019-10-23 11:00:00 17.5 9 Nordeste 20 Este 0 -- -- 77
2019-10-23 10:00:00 15.2 8 Este 19 Este 0 -- -- 86
2019-10-23 09:00:00 14.3 9 Sudeste 23 Este 0 -- -- 87
2019-10-23 08:00:00 13.8 8 Este 21 Este 0 -- -- 88
2019-10-23 07:00:00 13.3 8 Sur 16 Sudeste 0.4 -- -- 95
2019-10-23 06:00:00 13.1 5 Sudeste 12 Sur 2.2 -- -- 95
2019-10-23 05:00:00 12.8 7 Este 12 Sudeste 2.6 -- -- 93
2019-10-23 04:00:00 13.8 10 Sur 13 Sur 0 -- -- 84
2019-10-23 03:00:00 14.1 5 Sudeste 12 Este 0 -- -- 89
2019-10-23 02:00:00 13.9 6 Este 13 Sudeste 0 -- -- 92
2019-10-23 01:00:00 12.7 9 Sudeste 13 Sudeste 0 -- -- 91
2019-10-23 00:00:00 13.9 4 Sudeste 9 Sudeste 0 -- -- 88
2019-10-22 23:00:00 14.2 6 Sudeste 10 Sudeste 0 -- -- 87
2019-10-22 22:00:00 14.4 5 Sudeste 17 Nordeste 0 -- -- 89
2019-10-22 21:00:00 15.1 11 Norte 20 Norte 0.6 -- -- 88
2019-10-22 20:00:00 16.1 6 Noroeste 17 Norte 0 -- -- 74
2019-10-22 19:00:00 17.5 9 Norte 19 Norte 0 -- -- 67
2019-10-22 18:00:00 18.4 11 Norte 19 Norte 0 -- -- 64
2019-10-22 17:00:00 19.2 10 Oeste 20 Noroeste 0 -- -- 59
2019-10-22 16:00:00 19.2 10 Norte 21 Noroeste 0 -- -- 60
2019-10-22 15:00:00 18 9 Norte 17 Norte 0 -- -- 64
2019-10-22 14:00:00 17.8 6 Norte 20 Norte 0 -- -- 61
2019-10-22 13:00:00 16.2 4 Norte 21 Este 0 -- -- 66
2019-10-22 12:00:00 14.7 12 Nordeste 25 Nordeste 0 -- -- 85
2019-10-22 11:00:00 15.6 2 Oeste 15 Sudoeste 0 -- -- 77
2019-10-22 10:00:00 15 5 Sur 12 Sur 0.2 -- -- 79
2019-10-22 09:00:00 13.6 6 Sudeste 13 Sur 0.2 -- -- 87
2019-10-22 08:00:00 13.6 4 Sur 17 Norte 0 -- -- 90
2019-10-22 07:00:00 13.8 8 Sur 11 Sudoeste 0 -- -- 86
2019-10-22 06:00:00 13.8 2 Este 8 Sur 0 -- -- 89
2019-10-22 05:00:00 13.5 6 Sur 13 Este 0.4 -- -- 92
2019-10-22 04:00:00 14.2 6 Sur 10 Sudoeste 0 -- -- 85
2019-10-22 03:00:00 13.5 5 Sur 11 Sudeste 0 -- -- 89
2019-10-22 02:00:00 13.8 5 Este 9 Nordeste 0 -- -- 87
2019-10-22 01:00:00 14.2 3 Sur 9 Este 0 -- -- 89
2019-10-22 00:00:00 14.3 8 Sur 13 Sur 0 -- -- 82